Time;durP1;ratioP1;P1;durP2;ratioP2;P2;SDS_P1;SDS_P2;PMS_P1;PMS_P2;Temp;Humidity;BMP_temperature;BMP_pressure;BME280_temperature;BME280_humidity;BME280_pressure;Samples;Min_cycle;Max_cycle;Signal;HPM_P1;HPM_P2
2022/10/14 00:01:14;;;;;;;5.63;2.33;;;;;;;8.31;100.00;100475.59;5066458;28;20428;-76
2022/10/14 00:03:40;;;;;;;12.05;2.80;;;;;;;8.26;100.00;100469.09;5031491;28;20075;-78
2022/10/14 00:06:11;;;;;;;5.57;2.67;;;;;;;8.25;100.00;100464.72;5030534;28;20045;-76
2022/10/14 00:08:37;;;;;;;4.85;2.40;;;;;;;8.20;100.00;100459.84;5044429;28;20131;-77
2022/10/14 00:11:11;;;;;;;6.03;2.60;;;;;;;8.25;100.00;100464.72;5041852;28;20034;-76
2022/10/14 00:13:38;;;;;;;7.90;2.30;;;;;;;8.26;100.00;100461.06;5040702;28;20068;-77
2022/10/14 00:16:04;;;;;;;8.75;2.78;;;;;;;8.19;100.00;100460.88;5029562;28;20424;-77
2022/10/14 00:18:30;;;;;;;7.63;2.85;;;;;;;8.19;100.00;100466.22;5062878;28;20467;-78
2022/10/14 00:20:57;;;;;;;8.90;3.10;;;;;;;8.12;100.00;100451.81;5058613;28;20033;-76
2022/10/14 00:23:23;;;;;;;6.95;2.95;;;;;;;8.23;100.00;100464.91;5047495;28;20033;-77
2022/10/14 00:25:49;;;;;;;10.65;3.88;;;;;;;8.27;100.00;100466.22;5067467;28;20123;-76
2022/10/14 00:28:15;;;;;;;4.88;2.55;;;;;;;8.37;100.00;100460.69;5066824;28;20127;-77
2022/10/14 00:30:41;;;;;;;7.55;3.00;;;;;;;8.38;100.00;100454.31;5050023;28;20029;-77
2022/10/14 00:33:06;;;;;;;4.63;1.95;;;;;;;8.41;100.00;100447.81;5045046;28;20438;-76
2022/10/14 00:35:32;;;;;;;9.48;3.38;;;;;;;8.30;100.00;100435.59;5031677;28;20044;-76
2022/10/14 00:37:58;;;;;;;3.42;2.03;;;;;;;8.34;100.00;100448.47;5044322;28;20091;-76
2022/10/14 00:40:25;;;;;;;6.50;2.58;;;;;;;8.31;100.00;100437.28;5031715;28;20060;-76
2022/10/14 00:42:50;;;;;;;6.70;2.65;;;;;;;8.26;100.00;100421.69;5044344;28;20036;-76
2022/10/14 00:45:20;;;;;;;8.00;2.55;;;;;;;8.28;100.00;100432.22;5030102;28;20125;-77
2022/10/14 00:47:46;;;;;;;9.32;2.30;;;;;;;8.16;100.00;100429.06;5045061;28;20390;-77
2022/10/14 00:50:13;;;;;;;3.58;2.28;;;;;;;8.03;100.00;100429.56;5041493;28;20041;-76
2022/10/14 00:52:39;;;;;;;5.30;1.40;;;;;;;7.94;100.00;100430.59;5032843;28;20029;-75
2022/10/14 00:55:12;;;;;;;3.53;1.83;;;;;;;8.01;100.00;100428.91;5044380;28;20041;-77
2022/10/14 00:57:38;;;;;;;2.55;1.70;;;;;;;7.97;100.00;100413.34;5076477;28;20394;-76
2022/10/14 01:00:08;;;;;;;4.93;1.52;;;;;;;8.10;100.00;100413.69;5067421;28;20047;-76
2022/10/14 01:02:34;;;;;;;2.88;1.83;;;;;;;8.10;100.00;100414.53;5059455;28;20592;-78
2022/10/14 01:05:01;;;;;;;3.35;1.67;;;;;;;8.10;100.00;100411.84;5062770;28;20044;-76
2022/10/14 01:07:27;;;;;;;2.35;1.80;;;;;;;8.05;100.00;100405.31;5033884;28;20122;-76
2022/10/14 01:10:25;;;;;;;2.03;1.27;;;;;;;8.07;100.00;100408.63;5064064;28;20090;-76
2022/10/14 01:13:20;;;;;;;4.07;1.65;;;;;;;8.14;100.00;100407.81;5018004;28;20036;-76
2022/10/14 01:16:17;;;;;;;6.60;1.98;;;;;;;8.24;100.00;100410.31;5026840;28;20056;-76
2022/10/14 01:19:05;;;;;;;2.10;1.50;;;;;;;8.44;100.00;100405.47;5062316;28;20032;-77
2022/10/14 01:21:36;;;;;;;6.15;2.08;;;;;;;8.43;100.00;100397.59;5049182;28;20056;-75
2022/10/14 01:24:04;;;;;;;8.20;1.88;;;;;;;8.40;100.00;100396.09;5064724;28;20032;-75
2022/10/14 01:26:54;;;;;;;7.07;1.52;;;;;;;8.28;100.00;100387.56;5045466;28;20043;-76
2022/10/14 01:29:25;;;;;;;4.53;1.48;;;;;;;8.52;100.00;100404.59;5060071;28;20043;-76
2022/10/14 01:32:05;;;;;;;7.80;1.80;;;;;;;8.45;100.00;100403.63;5048670;28;20075;-76
2022/10/14 01:34:37;;;;;;;2.97;1.63;;;;;;;8.35;100.00;100393.06;5048815;28;20114;-76
2022/10/14 01:37:14;;;;;;;3.55;2.28;;;;;;;8.38;100.00;100390.84;5049735;28;20036;-76
2022/10/14 01:39:54;;;;;;;2.67;1.73;;;;;;;8.47;100.00;100382.88;5049392;28;20043;-75
2022/10/14 01:42:28;;;;;;;1.73;1.45;;;;;;;8.46;100.00;100370.44;5064435;28;20119;-76
2022/10/14 01:45:08;;;;;;;4.88;1.70;;;;;;;8.44;100.00;100367.97;5048102;28;20033;-75
2022/10/14 01:47:35;;;;;;;2.83;2.03;;;;;;;8.53;100.00;100376.81;5062268;28;20040;-76
2022/10/14 01:50:08;;;;;;;3.22;1.95;;;;;;;8.71;100.00;100365.88;5064963;28;20052;-76
2022/10/14 01:52:38;;;;;;;6.60;1.73;;;;;;;8.86;100.00;100372.16;5042501;28;20031;-75
2022/10/14 01:55:08;;;;;;;2.35;1.13;;;;;;;9.02;100.00;100361.38;5061322;28;20059;-76
2022/10/14 01:57:39;;;;;;;2.83;0.98;;;;;;;9.23;100.00;100359.91;5063725;28;20562;-75
2022/10/14 02:00:05;;;;;;;1.10;1.00;;;;;;;9.39;100.00;100356.28;5050083;28;20102;-75
2022/10/14 02:02:35;;;;;;;2.85;1.85;;;;;;;9.56;100.00;100365.06;5042054;28;20075;-76
2022/10/14 02:05:03;;;;;;;0.50;0.50;;;;;;;9.63;100.00;100358.81;5058813;28;20119;-76
2022/10/14 02:07:42;;;;;;;1.30;1.00;;;;;;;9.63;100.00;100341.84;5060930;28;20132;-76
2022/10/14 02:10:29;;;;;;;0.75;0.75;;;;;;;9.77;100.00;100359.03;5045037;28;20493;-76
2022/10/14 02:13:18;;;;;;;1.30;1.00;;;;;;;9.80;100.00;100350.63;5036558;28;20250;-75
2022/10/14 02:16:01;;;;;;;2.15;1.25;;;;;;;9.81;100.00;100349.59;5041451;28;20032;-76
2022/10/14 02:18:43;;;;;;;1.77;1.10;;;;;;;9.79;100.00;100341.75;5059833;28;20059;-76
2022/10/14 02:21:16;;;;;;;0.50;0.50;;;;;;;9.88;100.00;100340.63;5090681;28;20072;-75
2022/10/14 02:24:04;;;;;;;0.75;0.70;;;;;;;9.93;100.00;100342.78;5061797;28;20037;-76
2022/10/14 02:26:30;;;;;;;0.30;0.30;;;;;;;9.92;100.00;100346.47;5025565;28;20087;-76
2022/10/14 02:28:57;;;;;;;0.40;0.40;;;;;;;9.94;100.00;100336.38;5045930;28;20056;-75
2022/10/14 02:31:24;;;;;;;0.30;0.30;;;;;;;9.96;100.00;100328.97;5057549;28;20028;-76
2022/10/14 02:33:52;;;;;;;0.35;0.35;;;;;;;9.98;100.00;100334.19;5032071;28;20071;-75
2022/10/14 02:36:20;;;;;;;0.30;0.30;;;;;;;9.94;100.00;100327.50;5064844;28;20040;-76
2022/10/14 02:38:47;;;;;;;0.30;0.30;;;;;;;9.98;100.00;100329.66;5063722;28;20127;-75
2022/10/14 02:41:16;;;;;;;0.32;0.32;;;;;;;9.98;100.00;100335.00;5048998;28;20024;-76
2022/10/14 02:43:44;;;;;;;0.40;0.40;;;;;;;10.01;100.00;100340.03;5037378;28;20116;-75
2022/10/14 02:46:09;;;;;;;0.40;0.40;;;;;;;9.99;100.00;100336.69;5045196;28;20479;-75
2022/10/14 02:48:35;;;;;;;0.40;0.40;;;;;;;9.96;100.00;100339.72;5060862;28;20044;-75
2022/10/14 02:51:00;;;;;;;0.40;0.40;;;;;;;9.93;100.00;100342.78;5054703;28;20033;-75
2022/10/14 02:53:26;;;;;;;0.30;0.30;;;;;;;9.87;100.00;100322.88;5023883;28;20669;-77
2022/10/14 02:55:53;;;;;;;0.40;0.40;;;;;;;9.90;100.00;100324.34;5090933;28;20037;-75
2022/10/14 02:58:18;;;;;;;0.30;0.30;;;;;;;9.96;100.00;100320.09;5043294;28;20036;-76
2022/10/14 03:00:44;;;;;;;0.30;0.30;;;;;;;10.01;100.00;100315.00;5058573;28;20066;-75
2022/10/14 03:03:10;;;;;;;0.30;0.30;;;;;;;10.03;100.00;100307.59;5056132;28;20368;-75
2022/10/14 03:05:35;;;;;;;0.30;0.30;;;;;;;10.12;100.00;100309.19;5058361;28;20051;-77
2022/10/14 03:08:01;;;;;;;0.40;0.40;;;;;;;10.20;100.00;100306.41;5041002;28;20052;-77
2022/10/14 03:10:27;;;;;;;0.55;0.55;;;;;;;10.27;100.00;100296.63;5057252;28;20406;-75
2022/10/14 03:12:52;;;;;;;0.30;0.30;;;;;;;10.32;100.00;100294.22;5057391;28;20704;-76
2022/10/14 03:15:18;;;;;;;0.30;0.30;;;;;;;10.38;100.00;100298.03;5059354;28;20039;-78
2022/10/14 03:17:43;;;;;;;0.30;0.30;;;;;;;10.46;100.00;100300.63;5064112;28;20033;-77
2022/10/14 03:20:10;;;;;;;0.40;0.40;;;;;;;10.47;100.00;100302.25;5056975;28;20036;-75
2022/10/14 03:22:38;;;;;;;0.30;0.30;;;;;;;10.55;100.00;100302.16;5065566;28;20318;-77
2022/10/14 03:25:04;;;;;;;0.30;0.30;;;;;;;10.62;100.00;100299.56;5067028;28;20040;-75
2022/10/14 03:27:31;;;;;;;0.35;0.35;;;;;;;10.70;100.00;100299.47;5050333;28;20041;-76
2022/10/14 03:29:56;;;;;;;0.30;0.30;;;;;;;10.72;100.00;100299.28;5032710;28;20056;-76
2022/10/14 03:32:22;;;;;;;0.40;0.40;;;;;;;10.72;100.00;100300.13;5036710;28;20512;-76
2022/10/14 03:34:47;;;;;;;0.32;0.32;;;;;;;10.81;100.00;100290.09;5065532;28;20437;-76
2022/10/14 03:37:13;;;;;;;0.47;0.47;;;;;;;10.77;100.00;100278.06;5048406;28;20454;-76
2022/10/14 03:39:39;;;;;;;0.30;0.30;;;;;;;10.92;100.00;100286.06;5080666;28;20028;-76
2022/10/14 03:42:04;;;;;;;0.30;0.30;;;;;;;10.94;100.00;100297.47;5071094;28;20033;-77
2022/10/14 03:44:30;;;;;;;0.30;0.30;;;;;;;10.93;100.00;100302.03;5031684;28;20467;-76
2022/10/14 03:46:56;;;;;;;0.30;0.30;;;;;;;10.93;100.00;100299.34;5051818;28;20101;-75
2022/10/14 03:49:21;;;;;;;0.30;0.30;;;;;;;10.94;100.00;100295.63;5066441;28;20024;-76
2022/10/14 03:51:49;;;;;;;0.35;0.35;;;;;;;10.93;100.00;100299.34;5053680;28;20024;-76
2022/10/14 03:54:15;;;;;;;0.30;0.30;;;;;;;10.95;100.00;100304.50;5048636;28;20445;-76
2022/10/14 03:56:40;;;;;;;0.75;0.75;;;;;;;10.97;100.00;100303.31;5064582;28;20032;-76
2022/10/14 03:59:06;;;;;;;0.30;0.30;;;;;;;10.98;100.00;100298.75;5031799;28;20102;-76
2022/10/14 04:01:32;;;;;;;0.30;0.30;;;;;;;10.90;100.00;100286.28;5083502;28;20032;-76
2022/10/14 04:03:58;;;;;;;0.30;0.30;;;;;;;10.84;100.00;100281.63;5048809;28;20047;-75
2022/10/14 04:06:23;;;;;;;0.30;0.30;;;;;;;10.90;100.00;100298.88;5085003;28;20060;-76
2022/10/14 04:08:49;;;;;;;0.30;0.30;;;;;;;10.88;100.00;100295.56;5031904;28;20033;-76
2022/10/14 04:11:16;;;;;;;0.30;0.30;;;;;;;10.86;100.00;100289.53;5067675;28;20076;-76
2022/10/14 04:13:41;;;;;;;0.40;0.40;;;;;;;10.85;100.00;100296.75;5036315;28;20050;-76
2022/10/14 04:16:09;;;;;;;0.30;0.30;;;;;;;10.81;100.00;100289.25;5051780;28;20471;-76
2022/10/14 04:18:35;;;;;;;0.25;0.25;;;;;;;10.77;100.00;100281.56;5065728;28;20071;-76
2022/10/14 04:21:05;;;;;;;0.30;0.30;;;;;;;10.71;100.00;100285.00;5046940;28;20067;-76
2022/10/14 04:23:31;;;;;;;0.30;0.30;;;;;;;10.67;100.00;100281.03;5063056;28;20394;-76
2022/10/14 04:25:57;;;;;;;0.30;0.30;;;;;;;10.66;100.00;100283.91;5048026;28;20029;-75
2022/10/14 04:28:23;;;;;;;0.30;0.30;;;;;;;10.63;100.00;100281.59;5052558;28;20090;-76
2022/10/14 04:30:49;;;;;;;0.30;0.30;;;;;;;10.55;100.00;100277.97;5048519;28;20044;-76
2022/10/14 04:33:14;;;;;;;0.30;0.30;;;;;;;10.56;100.00;100281.53;5066517;28;20028;-75
2022/10/14 04:35:40;;;;;;;0.30;0.30;;;;;;;10.49;100.00;100275.22;5030780;28;20059;-75
2022/10/14 04:38:05;;;;;;;0.40;0.40;;;;;;;10.46;100.00;100272.91;5047570;28;20047;-75
2022/10/14 04:40:31;;;;;;;0.30;0.30;;;;;;;10.45;100.00;100266.69;5036616;28;20024;-76
2022/10/14 04:42:57;;;;;;;0.40;0.40;;;;;;;10.44;100.00;100267.69;5056148;28;20036;-76
2022/10/14 04:45:24;;;;;;;0.30;0.30;;;;;;;10.37;100.00;100268.63;5081410;28;20040;-76
2022/10/14 04:47:50;;;;;;;0.35;0.35;;;;;;;10.29;100.00;100264.19;5055286;28;20573;-75
2022/10/14 04:50:17;;;;;;;0.30;0.30;;;;;;;10.19;100.00;100264.47;5044137;28;20072;-76
2022/10/14 04:52:42;;;;;;;0.35;0.35;;;;;;;10.10;100.00;100269.06;5061016;28;20047;-75
2022/10/14 04:55:08;;;;;;;0.30;0.30;;;;;;;9.93;100.00;100267.59;5049929;28;20378;-76
2022/10/14 04:57:34;;;;;;;0.35;0.35;;;;;;;9.76;100.00;100266.91;5035162;28;20063;-75
2022/10/14 04:59:59;;;;;;;0.30;0.30;;;;;;;9.63;100.00;100264.84;5064813;28;20035;-76
2022/10/14 05:02:25;;;;;;;0.30;0.30;;;;;;;9.59;100.00;100265.41;5037902;28;20047;-75
2022/10/14 05:04:51;;;;;;;0.30;0.30;;;;;;;9.50;100.00;100267.31;5050047;28;20028;-75
2022/10/14 05:07:16;;;;;;;0.30;0.30;;;;;;;9.51;100.00;100268.16;5051611;28;20417;-76
2022/10/14 05:09:42;;;;;;;0.30;0.30;;;;;;;9.57;100.00;100270.94;5059939;28;20094;-75
2022/10/14 05:12:07;;;;;;;0.30;0.30;;;;;;;9.64;100.00;100284.47;5050200;28;20078;-76
2022/10/14 05:14:34;;;;;;;0.30;0.30;;;;;;;9.67;100.00;100276.06;5059906;28;20350;-77
2022/10/14 05:17:00;;;;;;;0.30;0.30;;;;;;;9.66;100.00;100272.53;5065390;28;20082;-76
2022/10/14 05:19:25;;;;;;;0.30;0.30;;;;;;;9.59;100.00;100282.31;5046792;28;20442;-76
2022/10/14 05:21:51;;;;;;;0.40;0.40;;;;;;;9.47;100.00;100273.03;5065088;28;20043;-76
2022/10/14 05:24:17;;;;;;;0.30;0.30;;;;;;;9.44;100.00;100286.81;5022307;28;20068;-75
2022/10/14 05:26:43;;;;;;;0.30;0.30;;;;;;;9.20;100.00;100282.47;5035401;28;20044;-79
2022/10/14 05:29:10;;;;;;;0.30;0.30;;;;;;;8.94;100.00;100274.75;5096291;28;20032;-76
2022/10/14 05:31:36;;;;;;;0.30;0.30;;;;;;;8.69;100.00;100285.63;5067212;28;20028;-76
2022/10/14 05:34:02;;;;;;;0.30;0.30;;;;;;;8.42;100.00;100272.69;5067729;28;20123;-75
2022/10/14 05:36:27;;;;;;;0.30;0.30;;;;;;;8.15;100.00;100267.56;5057602;28;20036;-75
2022/10/14 05:38:57;;;;;;;0.30;0.30;;;;;;;8.09;100.00;100286.13;5061334;28;20032;-76
2022/10/14 05:41:24;;;;;;;0.30;0.30;;;;;;;7.82;100.00;100274.00;5044765;28;20110;-77
2022/10/14 05:43:49;;;;;;;0.30;0.30;;;;;;;7.71;100.00;100277.84;5044952;28;20667;-76
2022/10/14 05:46:15;;;;;;;0.30;0.30;;;;;;;7.60;100.00;100270.19;5042824;28;20029;-76
2022/10/14 05:48:41;;;;;;;0.30;0.30;;;;;;;7.57;100.00;100270.50;5030617;28;20028;-75
2022/10/14 05:51:06;;;;;;;0.30;0.30;;;;;;;7.45;100.00;100276.19;5047506;28;20063;-75
2022/10/14 05:53:32;;;;;;;0.30;0.30;;;;;;;7.34;100.00;100271.19;5065335;28;20032;-75
2022/10/14 05:56:06;;;;;;;0.38;0.38;;;;;;;7.26;100.00;100268.50;5066787;28;20138;-77
2022/10/14 05:58:32;;;;;;;;;;;;;;;7.13;100.00;100278.84;5047147;28;20040;-78
2022/10/14 06:01:01;;;;;;;0.32;0.32;;;;;;;6.99;100.00;100275.00;5099136;28;19923;-76
2022/10/14 06:03:28;;;;;;;0.40;0.40;;;;;;;6.86;100.00;100270.13;5047468;28;20123;-75
2022/10/14 06:05:54;;;;;;;0.30;0.30;;;;;;;6.84;100.00;100277.44;5038337;28;20355;-76
2022/10/14 06:08:20;;;;;;;0.40;0.40;;;;;;;6.76;100.00;100270.25;5035795;28;20044;-76
2022/10/14 06:10:46;;;;;;;0.30;0.30;;;;;;;6.78;100.00;100262.09;5053950;28;20424;-76
2022/10/14 06:13:11;;;;;;;0.35;0.35;;;;;;;6.85;100.00;100259.56;5073640;28;20301;-75
2022/10/14 06:15:37;;;;;;;0.40;0.40;;;;;;;7.02;100.00;100266.63;5048122;28;20375;-76
2022/10/14 06:18:03;;;;;;;0.30;0.30;;;;;;;7.30;100.00;100267.16;5067589;28;20029;-77
2022/10/14 06:20:29;;;;;;;0.30;0.30;;;;;;;7.63;100.00;100269.84;5062675;28;20033;-76
2022/10/14 06:22:54;;;;;;;0.40;0.40;;;;;;;7.91;100.00;100268.47;5051356;28;20041;-77
2022/10/14 06:25:20;;;;;;;0.40;0.40;;;;;;;8.08;100.00;100276.44;5026876;28;20470;-75
2022/10/14 06:27:45;;;;;;;0.40;0.40;;;;;;;8.22;100.00;100278.41;5058161;28;20516;-77
2022/10/14 06:30:12;;;;;;;0.40;0.40;;;;;;;8.40;100.00;100264.81;5055898;28;20536;-76
2022/10/14 06:32:37;;;;;;;0.40;0.40;;;;;;;8.59;100.00;100276.94;5059762;28;20028;-76
2022/10/14 06:35:03;;;;;;;0.30;0.30;;;;;;;8.78;100.00;100279.19;5025842;28;20508;-76
2022/10/14 06:37:29;;;;;;;0.30;0.30;;;;;;;8.84;100.00;100282.19;5069974;28;20029;-76
2022/10/14 06:39:55;;;;;;;0.30;0.30;;;;;;;8.97;100.00;100285.13;5044138;28;20041;-76
2022/10/14 06:42:20;;;;;;;0.40;0.40;;;;;;;9.06;100.00;100277.88;5031906;28;20033;-76
2022/10/14 06:44:46;;;;;;;0.30;0.30;;;;;;;9.08;100.00;100281.22;5042739;28;20039;-75
2022/10/14 06:47:12;;;;;;;0.30;0.30;;;;;;;9.05;100.00;100273.50;5065905;28;20036;-76
2022/10/14 06:49:38;;;;;;;0.40;0.40;;;;;;;8.96;100.00;100272.75;5035532;28;20068;-77
2022/10/14 06:52:03;;;;;;;0.40;0.40;;;;;;;8.80;100.00;100271.00;5070756;28;20094;-77
2022/10/14 06:54:29;;;;;;;0.30;0.30;;;;;;;8.60;100.00;100278.66;5053923;28;20021;-76
2022/10/14 06:56:54;;;;;;;0.40;0.40;;;;;;;8.37;100.00;100265.97;5036699;28;20397;-75
2022/10/14 06:59:20;;;;;;;0.40;0.40;;;;;;;8.09;100.00;100270.06;5067502;28;20119;-77
2022/10/14 07:01:46;;;;;;;0.30;0.30;;;;;;;7.90;100.00;100272.13;5051456;28;20058;-76
2022/10/14 07:04:11;;;;;;;0.40;0.40;;;;;;;7.77;100.00;100277.16;5069900;28;20093;-76
2022/10/14 07:06:37;;;;;;;0.40;0.40;;;;;;;7.56;100.00;100269.66;5037000;28;20036;-75
2022/10/14 07:09:03;;;;;;;0.30;0.30;;;;;;;7.40;100.00;100256.28;5037900;28;20087;-76
2022/10/14 07:11:29;;;;;;;0.40;0.40;;;;;;;7.31;100.00;100282.22;5066886;28;20032;-75
2022/10/14 07:13:55;;;;;;;0.30;0.30;;;;;;;7.21;100.00;100278.84;5033080;28;20086;-76
2022/10/14 07:16:21;;;;;;;0.40;0.40;;;;;;;7.21;100.00;100276.19;5046187;28;20040;-75
2022/10/14 07:18:47;;;;;;;0.32;0.32;;;;;;;7.20;100.00;100269.19;5067169;28;20036;-76
2022/10/14 07:21:13;;;;;;;0.40;0.40;;;;;;;7.26;100.00;100277.34;5066927;28;20067;-76
2022/10/14 07:23:39;;;;;;;0.40;0.40;;;;;;;7.34;100.00;100273.84;5048626;28;20064;-75
2022/10/14 07:26:05;;;;;;;0.40;0.40;;;;;;;7.41;100.00;100274.00;5066873;28;20502;-75
2022/10/14 07:28:32;;;;;;;0.40;0.40;;;;;;;7.49;100.00;100271.34;5047887;28;20048;-75
2022/10/14 07:31:16;;;;;;;0.50;0.50;;;;;;;7.43;100.00;100254.09;5050770;28;20425;-75
2022/10/14 07:33:42;;;;;;;0.40;0.40;;;;;;;7.37;100.00;100268.16;5064752;28;20111;-74
2022/10/14 07:36:11;;;;;;;0.40;0.40;;;;;;;7.26;100.00;100260.47;5044913;28;20529;-74
2022/10/14 07:38:37;;;;;;;0.40;0.40;;;;;;;7.23;100.00;100268.84;5077928;28;20100;-77
2022/10/14 07:41:16;;;;;;;0.40;0.40;;;;;;;7.29;100.00;100261.97;5068054;28;20439;-75
2022/10/14 07:43:45;;;;;;;0.32;0.32;;;;;;;7.29;100.00;100270.84;5053822;28;20036;-76
2022/10/14 07:46:12;;;;;;;0.40;0.40;;;;;;;7.37;100.00;100272.69;5035496;28;20321;-76
2022/10/14 07:48:38;;;;;;;0.40;0.40;;;;;;;7.55;100.00;100265.31;5047532;28;20028;-76
2022/10/14 07:51:06;;;;;;;0.40;0.40;;;;;;;7.83;100.00;100273.84;5053113;28;20036;-77
2022/10/14 07:53:32;;;;;;;0.40;0.40;;;;;;;8.10;100.00;100258.38;5051396;28;20102;-76
2022/10/14 07:55:58;;;;;;;0.40;0.40;;;;;;;8.46;100.00;100280.19;5063157;28;20079;-77
2022/10/14 07:58:28;;;;;;;0.40;0.40;;;;;;;8.79;100.00;100272.00;5065636;28;20397;-76
2022/10/14 08:00:56;;;;;;;0.40;0.40;;;;;;;9.15;100.00;100274.13;5049287;28;20390;-77
2022/10/14 08:03:22;;;;;;;0.40;0.40;;;;;;;9.53;100.00;100271.50;5097945;28;20038;-76
2022/10/14 08:05:51;;;;;;;0.38;0.38;;;;;;;9.78;100.00;100275.59;5049127;28;20048;-76
2022/10/14 08:08:17;;;;;;;0.30;0.30;;;;;;;9.82;100.00;100278.78;5048413;28;20025;-77
2022/10/14 08:10:43;;;;;;;0.40;0.40;;;;;;;9.85;100.00;100287.28;5048713;28;20502;-77
2022/10/14 08:13:09;;;;;;;0.40;0.40;;;;;;;9.98;100.00;100280.47;5060493;28;20100;-76
2022/10/14 08:15:37;;;;;;;0.43;0.43;;;;;;;10.06;100.00;100265.09;5046959;28;20041;-78
2022/10/14 08:18:04;;;;;;;0.40;0.40;;;;;;;10.15;100.00;100260.47;5063590;28;20093;-77
2022/10/14 08:20:31;;;;;;;0.30;0.30;;;;;;;10.00;100.00;100271.22;5069578;28;20137;-76
2022/10/14 08:22:57;;;;;;;0.40;0.40;;;;;;;9.80;100.00;100273.59;5066362;28;20179;-76
2022/10/14 08:25:23;;;;;;;0.40;0.40;;;;;;;9.72;100.00;100275.53;5035229;28;20123;-77
2022/10/14 08:27:53;;;;;;;0.40;0.40;;;;;;;9.80;100.00;100278.94;5050780;28;20051;-77
2022/10/14 08:30:19;;;;;;;0.68;0.68;;;;;;;10.86;100.00;100279.59;5067665;28;20040;-77
2022/10/14 08:32:45;;;;;;;0.60;0.60;;;;;;;13.80;100.00;100285.66;5063826;28;20024;-76
2022/10/14 08:35:11;;;;;;;0.60;0.60;;;;;;;15.30;100.00;100291.00;5047971;28;20043;-77
2022/10/14 08:37:37;;;;;;;0.40;0.40;;;;;;;15.22;100.00;100285.84;5049860;28;20036;-76
2022/10/14 08:40:03;;;;;;;0.30;0.30;;;;;;;14.36;100.00;100293.25;5049395;28;20041;-76
2022/10/14 08:42:59;;;;;;;0.38;0.38;;;;;;;13.30;100.00;100296.00;5095339;28;20186;-77
2022/10/14 08:45:37;;;;;;;0.40;0.40;;;;;;;12.22;100.00;100284.94;5067322;28;20729;-76
2022/10/14 08:48:09;;;;;;;0.30;0.30;;;;;;;11.74;100.00;100301.78;5065090;28;20044;-76
2022/10/14 08:50:39;;;;;;;0.40;0.40;;;;;;;11.34;100.00;100303.28;5045599;28;20496;-77
2022/10/14 08:53:27;;;;;;;0.35;0.35;;;;;;;11.23;100.00;100310.00;5068794;28;20111;-77
2022/10/14 08:55:56;;;;;;;0.40;0.40;;;;;;;11.17;100.00;100318.84;5047814;28;20037;-77
2022/10/14 08:58:37;;;;;;;0.30;0.30;;;;;;;11.17;100.00;100322.38;5079686;28;20481;-77
2022/10/14 09:01:25;;;;;;;0.38;0.38;;;;;;;11.15;100.00;100323.59;5060400;28;20131;-77
2022/10/14 09:04:12;;;;;;;0.40;0.40;;;;;;;11.20;100.00;100323.84;5029591;28;20094;-77
2022/10/14 09:06:40;;;;;;;0.40;0.40;;;;;;;11.23;100.00;100315.38;5068746;28;20050;-79
2022/10/14 09:09:11;;;;;;;0.40;0.40;;;;;;;11.29;100.00;100332.63;5034077;28;20043;-81
2022/10/14 09:11:45;;;;;;;0.45;0.45;;;;;;;11.28;100.00;100325.59;5050341;28;20044;-80
2022/10/14 09:14:25;;;;;;;0.40;0.40;;;;;;;11.36;100.00;100320.91;5047570;28;20059;-79
2022/10/14 09:16:56;;;;;;;0.50;0.50;;;;;;;11.40;100.00;100314.09;5051079;28;20032;-80
2022/10/14 09:19:31;;;;;;;0.40;0.40;;;;;;;11.39;100.00;100306.22;5049717;28;20032;-78
2022/10/14 09:21:58;;;;;;;0.50;0.50;;;;;;;11.42;100.00;100295.06;5049606;28;20410;-79
2022/10/14 09:24:34;;;;;;;0.50;0.50;;;;;;;11.84;100.00;100302.28;5035957;28;20117;-79
2022/10/14 09:27:04;;;;;;;0.50;0.50;;;;;;;12.68;100.00;100303.25;5036918;28;20039;-78
2022/10/14 09:29:32;;;;;;;0.80;0.80;;;;;;;15.36;100.00;100303.66;5051991;28;20051;-78
2022/10/14 09:32:11;;;;;;;0.70;0.70;;;;;;;17.07;89.92;100306.84;5034998;28;20040;-78
2022/10/14 09:34:49;;;;;;;0.65;0.65;;;;;;;18.10;84.42;100308.41;5068124;28;20063;-79
2022/10/14 09:37:35;;;;;;;0.68;0.68;;;;;;;18.77;82.37;100313.44;5053470;28;20040;-79
2022/10/14 09:40:08;;;;;;;0.73;0.73;;;;;;;19.58;79.27;100302.41;5046772;28;20052;-79
2022/10/14 09:43:12;;;;;;;0.80;0.80;;;;;;;20.64;76.77;100315.28;5074975;28;20076;-81
2022/10/14 09:46:09;;;;;;;0.85;0.85;;;;;;;21.94;72.75;100311.72;5008028;28;20040;-80
2022/10/14 09:48:48;;;;;;;0.80;0.80;;;;;;;22.35;70.13;100315.56;5047112;28;20051;-78
2022/10/14 09:51:17;;;;;;;0.60;0.60;;;;;;;21.48;75.14;100317.59;5034909;28;20041;-78
2022/10/14 09:53:46;;;;;;;0.90;0.90;;;;;;;21.34;74.63;100316.34;5062840;28;20048;-84
2022/10/14 09:56:12;;;;;;;0.50;0.50;;;;;;;19.51;78.16;100312.66;5060639;28;20039;-77
2022/10/14 09:58:56;;;;;;;0.40;0.40;;;;;;;17.33;91.42;100317.34;5066717;28;20036;-77
2022/10/14 10:01:28;;;;;;;0.40;0.40;;;;;;;15.68;99.97;100320.75;5060761;28;20040;-78
2022/10/14 10:03:55;;;;;;;0.47;0.47;;;;;;;14.69;100.00;100314.00;5057210;28;20040;-78
2022/10/14 10:06:24;;;;;;;0.50;0.50;;;;;;;14.06;100.00;100309.94;5049061;28;20036;-79
2022/10/14 10:08:54;;;;;;;0.50;0.50;;;;;;;13.83;100.00;100309.53;5065612;28;20029;-77
2022/10/14 10:11:28;;;;;;;0.30;0.30;;;;;;;13.80;100.00;100312.66;5049109;28;20028;-79
2022/10/14 10:13:54;;;;;;;0.40;0.40;;;;;;;13.59;100.00;100309.13;5062260;28;20390;-78
2022/10/14 10:16:24;;;;;;;0.40;0.40;;;;;;;13.34;100.00;100311.59;5059116;28;20029;-76
2022/10/14 10:18:51;;;;;;;0.50;0.50;;;;;;;13.40;100.00;100307.22;5044402;28;20032;-76
2022/10/14 10:21:23;;;;;;;0.60;0.60;;;;;;;14.11;100.00;100308.50;5078614;28;20044;-83
2022/10/14 10:24:00;;;;;;;0.50;0.50;;;;;;;14.97;100.00;100304.72;5068871;28;20251;-77
2022/10/14 10:26:28;;;;;;;0.38;0.38;;;;;;;14.75;100.00;100299.63;5030998;28;20040;-78
2022/10/14 10:28:58;;;;;;;0.50;0.50;;;;;;;14.89;100.00;100298.50;5091470;27;20028;-78
2022/10/14 10:31:33;;;;;;;0.90;0.90;;;;;;;18.93;91.57;100302.84;5049806;28;20074;-81
2022/10/14 10:34:10;;;;;;;0.50;0.50;;;;;;;19.25;87.02;100300.47;5071811;28;20063;-77
2022/10/14 10:36:46;;;;;;;0.50;0.50;;;;;;;18.11;89.37;100282.03;5050742;28;20143;-78
2022/10/14 10:39:28;;;;;;;0.68;0.40;;;;;;;17.19;97.01;100301.44;5066183;28;20032;-80
2022/10/14 10:42:15;;;;;;;0.50;0.50;;;;;;;17.61;95.56;100296.00;5066925;28;20032;-78
2022/10/14 10:45:03;;;;;;;0.50;0.50;;;;;;;16.67;96.23;100285.56;5037023;28;20024;-78
2022/10/14 10:47:44;;;;;;;0.60;0.60;;;;;;;16.87;93.21;100293.50;5047434;28;20524;-78
2022/10/14 10:50:52;;;;;;;1.35;1.00;;;;;;;18.83;87.88;100296.13;5065246;28;20051;-77
2022/10/14 10:53:28;;;;;;;1.30;1.20;;;;;;;21.55;76.54;100287.31;5046515;28;20043;-81
2022/10/14 10:56:05;;;;;;;4.72;1.20;;;;;;;22.51;70.87;100274.56;5052931;28;20033;-77
2022/10/14 10:59:00;;;;;;;4.55;1.08;;;;;;;21.24;71.54;100286.16;5054989;28;20113;-79
2022/10/14 11:01:38;;;;;;;5.55;2.20;;;;;;;19.70;81.41;100245.91;5049528;28;20059;-78
2022/10/14 11:04:12;;;;;;;6.38;1.25;;;;;;;19.70;82.18;100275.91;5064376;28;20040;-79
2022/10/14 11:12:54;;;;;;;5.70;1.17;;;;;;;16.43;93.31;100277.31;5065114;28;20049;-77
2022/10/14 11:15:26;;;;;;;6.55;1.40;;;;;;;15.62;97.64;100286.41;5045249;28;20434;-77
2022/10/14 11:18:02;;;;;;;8.82;1.48;;;;;;;15.35;99.51;100275.75;5079074;28;20052;-77
2022/10/14 11:20:51;;;;;;;7.40;1.55;;;;;;;15.63;97.91;100270.97;5052191;28;20044;-78
2022/10/14 11:23:35;;;;;;;6.30;2.28;;;;;;;15.25;99.73;100251.03;5048279;28;20040;-78
2022/10/14 11:26:10;;;;;;;4.30;2.28;;;;;;;15.72;98.80;100248.81;5060963;28;20028;-78
2022/10/14 11:28:59;;;;;;;5.97;1.42;;;;;;;15.50;98.37;100244.78;5053120;28;20051;-77
2022/10/14 11:31:50;;;;;;;3.63;1.20;;;;;;;15.31;100.00;100265.56;5053377;28;20511;-79
2022/10/14 11:34:28;;;;;;;5.97;1.40;;;;;;;15.34;100.00;100257.81;5062849;28;20036;-80
2022/10/14 11:37:20;;;;;;;5.47;1.67;;;;;;;15.59;100.00;100260.56;5065529;28;20033;-80
2022/10/14 11:39:56;;;;;;;6.70;1.83;;;;;;;16.03;100.00;100236.19;5054157;28;20462;-77
2022/10/14 11:42:41;;;;;;;4.07;1.52;;;;;;;16.35;99.64;100245.03;5053014;28;20048;-78